sensor_id;sensor_type;location;lat;lon;timestamp;P1;durP1;ratioP1;P2;durP2;ratioP2
34541;SDS011;20784;51.332;12.410;2023-08-24T00:00:55;9.75;;;3.50;;
34541;SDS011;20784;51.332;12.410;2023-08-24T00:03:20;4.90;;;3.50;;
34541;SDS011;20784;51.332;12.410;2023-08-24T00:05:47;5.80;;;3.10;;
34541;SDS011;20784;51.332;12.410;2023-08-24T00:08:16;3.05;;;2.47;;
34541;SDS011;20784;51.332;12.410;2023-08-24T00:10:43;5.55;;;3.22;;
34541;SDS011;20784;51.332;12.410;2023-08-24T00:13:11;5.03;;;3.38;;
34541;SDS011;20784;51.332;12.410;2023-08-24T00:15:37;5.53;;;3.10;;
34541;SDS011;20784;51.332;12.410;2023-08-24T00:18:02;3.33;;;2.90;;
34541;SDS011;20784;51.332;12.410;2023-08-24T00:20:28;3.90;;;3.22;;
34541;SDS011;20784;51.332;12.410;2023-08-24T00:22:54;7.43;;;3.45;;
34541;SDS011;20784;51.332;12.410;2023-08-24T00:25:19;4.53;;;3.13;;
34541;SDS011;20784;51.332;12.410;2023-08-24T00:27:45;3.97;;;2.90;;
34541;SDS011;20784;51.332;12.410;2023-08-24T00:30:11;3.92;;;3.20;;
34541;SDS011;20784;51.332;12.410;2023-08-24T00:32:36;4.93;;;3.17;;
34541;SDS011;20784;51.332;12.410;2023-08-24T00:35:02;4.38;;;3.00;;
34541;SDS011;20784;51.332;12.410;2023-08-24T00:37:30;3.97;;;3.03;;
34541;SDS011;20784;51.332;12.410;2023-08-24T00:40:02;4.30;;;3.00;;
34541;SDS011;20784;51.332;12.410;2023-08-24T00:44:57;7.40;;;3.38;;
34541;SDS011;20784;51.332;12.410;2023-08-24T00:47:23;5.78;;;2.63;;
34541;SDS011;20784;51.332;12.410;2023-08-24T00:49:50;8.27;;;3.00;;
34541;SDS011;20784;51.332;12.410;2023-08-24T00:52:16;3.60;;;2.83;;
34541;SDS011;20784;51.332;12.410;2023-08-24T00:54:42;5.38;;;3.15;;
34541;SDS011;20784;51.332;12.410;2023-08-24T00:57:07;5.18;;;2.95;;
34541;SDS011;20784;51.332;12.410;2023-08-24T00:59:33;4.85;;;3.50;;
34541;SDS011;20784;51.332;12.410;2023-08-24T01:01:59;4.20;;;3.25;;
34541;SDS011;20784;51.332;12.410;2023-08-24T01:04:26;4.55;;;3.20;;
34541;SDS011;20784;51.332;12.410;2023-08-24T01:06:52;3.35;;;3.05;;
34541;SDS011;20784;51.332;12.410;2023-08-24T01:09:18;6.57;;;3.40;;
34541;SDS011;20784;51.332;12.410;2023-08-24T01:12:12;5.20;;;3.85;;
34541;SDS011;20784;51.332;12.410;2023-08-24T01:14:53;6.03;;;4.15;;
34541;SDS011;20784;51.332;12.410;2023-08-24T01:17:29;4.90;;;3.53;;
34541;SDS011;20784;51.332;12.410;2023-08-24T01:19:56;5.03;;;4.15;;
34541;SDS011;20784;51.332;12.410;2023-08-24T01:27:49;5.55;;;4.05;;
34541;SDS011;20784;51.332;12.410;2023-08-24T01:30:16;6.65;;;4.00;;
34541;SDS011;20784;51.332;12.410;2023-08-24T01:32:43;4.32;;;3.88;;
34541;SDS011;20784;51.332;12.410;2023-08-24T01:35:09;7.70;;;4.15;;
34541;SDS011;20784;51.332;12.410;2023-08-24T01:37:35;4.85;;;4.20;;
34541;SDS011;20784;51.332;12.410;2023-08-24T01:42:41;12.35;;;4.20;;
34541;SDS011;20784;51.332;12.410;2023-08-24T01:45:13;5.93;;;4.35;;
34541;SDS011;20784;51.332;12.410;2023-08-24T01:47:41;6.43;;;4.47;;
34541;SDS011;20784;51.332;12.410;2023-08-24T01:50:08;5.43;;;4.50;;
34541;SDS011;20784;51.332;12.410;2023-08-24T01:52:34;8.75;;;4.38;;
34541;SDS011;20784;51.332;12.410;2023-08-24T01:55:00;5.97;;;4.35;;
34541;SDS011;20784;51.332;12.410;2023-08-24T01:57:26;7.18;;;4.35;;
34541;SDS011;20784;51.332;12.410;2023-08-24T01:59:51;5.70;;;4.20;;
34541;SDS011;20784;51.332;12.410;2023-08-24T02:02:17;6.38;;;4.03;;
34541;SDS011;20784;51.332;12.410;2023-08-24T02:04:43;5.68;;;4.80;;
34541;SDS011;20784;51.332;12.410;2023-08-24T02:07:08;5.60;;;3.60;;
34541;SDS011;20784;51.332;12.410;2023-08-24T02:09:34;5.68;;;4.20;;
34541;SDS011;20784;51.332;12.410;2023-08-24T02:11:59;6.18;;;4.85;;
34541;SDS011;20784;51.332;12.410;2023-08-24T02:14:25;8.80;;;4.00;;
34541;SDS011;20784;51.332;12.410;2023-08-24T02:16:50;10.40;;;5.07;;
34541;SDS011;20784;51.332;12.410;2023-08-24T02:19:16;6.47;;;4.20;;
34541;SDS011;20784;51.332;12.410;2023-08-24T02:21:42;4.90;;;4.30;;
34541;SDS011;20784;51.332;12.410;2023-08-24T02:24:07;6.80;;;4.45;;
34541;SDS011;20784;51.332;12.410;2023-08-24T02:26:33;7.82;;;4.75;;
34541;SDS011;20784;51.332;12.410;2023-08-24T02:28:59;7.13;;;4.40;;
34541;SDS011;20784;51.332;12.410;2023-08-24T02:31:25;6.63;;;4.30;;
34541;SDS011;20784;51.332;12.410;2023-08-24T02:33:52;5.18;;;4.68;;
34541;SDS011;20784;51.332;12.410;2023-08-24T02:36:18;6.10;;;4.75;;
34541;SDS011;20784;51.332;12.410;2023-08-24T02:38:44;8.52;;;3.97;;
34541;SDS011;20784;51.332;12.410;2023-08-24T02:41:15;6.93;;;4.18;;
34541;SDS011;20784;51.332;12.410;2023-08-24T02:43:41;5.75;;;4.15;;
34541;SDS011;20784;51.332;12.410;2023-08-24T02:46:07;5.72;;;4.00;;
34541;SDS011;20784;51.332;12.410;2023-08-24T02:48:34;6.45;;;3.90;;
34541;SDS011;20784;51.332;12.410;2023-08-24T02:51:00;4.32;;;3.67;;
34541;SDS011;20784;51.332;12.410;2023-08-24T02:53:28;5.95;;;4.13;;
34541;SDS011;20784;51.332;12.410;2023-08-24T02:55:53;6.25;;;4.00;;
34541;SDS011;20784;51.332;12.410;2023-08-24T02:58:20;6.88;;;4.57;;
34541;SDS011;20784;51.332;12.410;2023-08-24T03:00:46;4.45;;;3.67;;
34541;SDS011;20784;51.332;12.410;2023-08-24T03:03:13;4.85;;;4.25;;
34541;SDS011;20784;51.332;12.410;2023-08-24T03:05:39;4.68;;;4.15;;
34541;SDS011;20784;51.332;12.410;2023-08-24T03:08:05;4.70;;;4.20;;
34541;SDS011;20784;51.332;12.410;2023-08-24T03:10:34;8.25;;;4.55;;
34541;SDS011;20784;51.332;12.410;2023-08-24T03:13:00;8.88;;;4.18;;
34541;SDS011;20784;51.332;12.410;2023-08-24T03:15:26;5.63;;;3.58;;
34541;SDS011;20784;51.332;12.410;2023-08-24T03:17:53;4.35;;;3.75;;
34541;SDS011;20784;51.332;12.410;2023-08-24T03:20:19;5.68;;;3.97;;
34541;SDS011;20784;51.332;12.410;2023-08-24T03:22:45;5.78;;;3.63;;
34541;SDS011;20784;51.332;12.410;2023-08-24T03:25:10;4.50;;;3.97;;
34541;SDS011;20784;51.332;12.410;2023-08-24T03:27:37;6.60;;;4.13;;
34541;SDS011;20784;51.332;12.410;2023-08-24T03:30:03;6.22;;;4.05;;
34541;SDS011;20784;51.332;12.410;2023-08-24T03:32:29;6.00;;;4.18;;
34541;SDS011;20784;51.332;12.410;2023-08-24T03:34:58;5.68;;;4.22;;
34541;SDS011;20784;51.332;12.410;2023-08-24T03:37:24;6.57;;;3.97;;
34541;SDS011;20784;51.332;12.410;2023-08-24T03:39:50;5.72;;;4.47;;
34541;SDS011;20784;51.332;12.410;2023-08-24T03:42:16;9.00;;;4.32;;
34541;SDS011;20784;51.332;12.410;2023-08-24T03:44:41;7.25;;;3.95;;
34541;SDS011;20784;51.332;12.410;2023-08-24T03:47:07;7.95;;;4.60;;
34541;SDS011;20784;51.332;12.410;2023-08-24T03:49:33;7.70;;;5.25;;
34541;SDS011;20784;51.332;12.410;2023-08-24T03:51:59;6.15;;;3.72;;
34541;SDS011;20784;51.332;12.410;2023-08-24T03:54:25;10.65;;;4.50;;
34541;SDS011;20784;51.332;12.410;2023-08-24T03:56:50;6.15;;;4.03;;
34541;SDS011;20784;51.332;12.410;2023-08-24T03:59:16;6.65;;;4.35;;
34541;SDS011;20784;51.332;12.410;2023-08-24T04:01:42;9.32;;;4.43;;
34541;SDS011;20784;51.332;12.410;2023-08-24T04:04:07;8.73;;;4.85;;
34541;SDS011;20784;51.332;12.410;2023-08-24T04:06:33;5.60;;;4.82;;
34541;SDS011;20784;51.332;12.410;2023-08-24T04:08:58;4.82;;;4.20;;
34541;SDS011;20784;51.332;12.410;2023-08-24T04:11:24;6.40;;;4.53;;
34541;SDS011;20784;51.332;12.410;2023-08-24T04:13:49;9.10;;;4.38;;
34541;SDS011;20784;51.332;12.410;2023-08-24T04:16:15;5.85;;;4.47;;
34541;SDS011;20784;51.332;12.410;2023-08-24T04:18:40;8.88;;;4.38;;
34541;SDS011;20784;51.332;12.410;2023-08-24T04:21:06;7.32;;;4.95;;
34541;SDS011;20784;51.332;12.410;2023-08-24T04:23:32;4.72;;;4.25;;
34541;SDS011;20784;51.332;12.410;2023-08-24T04:25:57;9.70;;;4.50;;
34541;SDS011;20784;51.332;12.410;2023-08-24T04:28:23;5.40;;;4.63;;
34541;SDS011;20784;51.332;12.410;2023-08-24T04:30:49;6.28;;;5.10;;
34541;SDS011;20784;51.332;12.410;2023-08-24T04:33:16;7.97;;;4.82;;
34541;SDS011;20784;51.332;12.410;2023-08-24T04:35:42;6.68;;;4.63;;
34541;SDS011;20784;51.332;12.410;2023-08-24T04:38:07;7.75;;;5.20;;
34541;SDS011;20784;51.332;12.410;2023-08-24T04:43:21;5.70;;;5.05;;
34541;SDS011;20784;51.332;12.410;2023-08-24T04:45:49;7.28;;;6.32;;
34541;SDS011;20784;51.332;12.410;2023-08-24T04:48:17;8.25;;;6.60;;
34541;SDS011;20784;51.332;12.410;2023-08-24T04:50:43;6.70;;;5.60;;
34541;SDS011;20784;51.332;12.410;2023-08-24T04:53:10;12.55;;;5.88;;
34541;SDS011;20784;51.332;12.410;2023-08-24T04:55:40;6.18;;;5.20;;
34541;SDS011;20784;51.332;12.410;2023-08-24T04:58:06;11.63;;;5.15;;
34541;SDS011;20784;51.332;12.410;2023-08-24T05:00:36;6.28;;;4.90;;
34541;SDS011;20784;51.332;12.410;2023-08-24T05:03:05;9.02;;;5.20;;
34541;SDS011;20784;51.332;12.410;2023-08-24T05:05:32;9.02;;;5.45;;
34541;SDS011;20784;51.332;12.410;2023-08-24T05:07:59;7.00;;;5.50;;
34541;SDS011;20784;51.332;12.410;2023-08-24T05:10:29;7.18;;;5.53;;
34541;SDS011;20784;51.332;12.410;2023-08-24T05:12:56;7.47;;;5.63;;
34541;SDS011;20784;51.332;12.410;2023-08-24T05:15:22;9.07;;;5.85;;
34541;SDS011;20784;51.332;12.410;2023-08-24T05:17:47;8.25;;;6.30;;
34541;SDS011;20784;51.332;12.410;2023-08-24T05:20:13;6.97;;;5.68;;
34541;SDS011;20784;51.332;12.410;2023-08-24T05:22:39;7.35;;;5.72;;
34541;SDS011;20784;51.332;12.410;2023-08-24T05:25:05;10.05;;;6.72;;
34541;SDS011;20784;51.332;12.410;2023-08-24T05:27:31;8.40;;;6.38;;
34541;SDS011;20784;51.332;12.410;2023-08-24T05:29:56;10.57;;;6.43;;
34541;SDS011;20784;51.332;12.410;2023-08-24T05:32:22;10.18;;;6.43;;
34541;SDS011;20784;51.332;12.410;2023-08-24T05:34:50;8.35;;;6.93;;
34541;SDS011;20784;51.332;12.410;2023-08-24T05:37:16;8.27;;;6.70;;
34541;SDS011;20784;51.332;12.410;2023-08-24T05:39:42;11.38;;;6.53;;
34541;SDS011;20784;51.332;12.410;2023-08-24T05:42:08;9.68;;;7.13;;
34541;SDS011;20784;51.332;12.410;2023-08-24T05:44:34;10.27;;;6.97;;
34541;SDS011;20784;51.332;12.410;2023-08-24T05:47:03;13.68;;;6.43;;
34541;SDS011;20784;51.332;12.410;2023-08-24T05:49:32;11.05;;;5.90;;
34541;SDS011;20784;51.332;12.410;2023-08-24T05:51:58;7.75;;;6.45;;
34541;SDS011;20784;51.332;12.410;2023-08-24T05:54:23;7.45;;;6.15;;
34541;SDS011;20784;51.332;12.410;2023-08-24T05:56:49;7.93;;;5.82;;
34541;SDS011;20784;51.332;12.410;2023-08-24T05:59:15;10.30;;;6.18;;
34541;SDS011;20784;51.332;12.410;2023-08-24T06:01:41;9.82;;;6.13;;
34541;SDS011;20784;51.332;12.410;2023-08-24T06:04:09;11.27;;;6.47;;
34541;SDS011;20784;51.332;12.410;2023-08-24T06:06:36;9.40;;;6.03;;
34541;SDS011;20784;51.332;12.410;2023-08-24T06:09:02;15.50;;;6.82;;
34541;SDS011;20784;51.332;12.410;2023-08-24T06:11:32;9.15;;;6.10;;
34541;SDS011;20784;51.332;12.410;2023-08-24T06:13:58;8.10;;;5.82;;
34541;SDS011;20784;51.332;12.410;2023-08-24T06:16:24;14.35;;;6.07;;
34541;SDS011;20784;51.332;12.410;2023-08-24T06:18:49;7.80;;;5.82;;
34541;SDS011;20784;51.332;12.410;2023-08-24T06:21:15;7.82;;;5.57;;
34541;SDS011;20784;51.332;12.410;2023-08-24T06:23:41;7.82;;;5.70;;
34541;SDS011;20784;51.332;12.410;2023-08-24T06:26:07;8.43;;;5.53;;
34541;SDS011;20784;51.332;12.410;2023-08-24T06:28:32;9.55;;;6.20;;
34541;SDS011;20784;51.332;12.410;2023-08-24T06:30:59;8.75;;;5.65;;
34541;SDS011;20784;51.332;12.410;2023-08-24T06:33:28;10.32;;;5.60;;
34541;SDS011;20784;51.332;12.410;2023-08-24T06:35:56;8.40;;;4.82;;
34541;SDS011;20784;51.332;12.410;2023-08-24T06:38:22;7.18;;;4.57;;
34541;SDS011;20784;51.332;12.410;2023-08-24T06:40:48;7.93;;;5.03;;
34541;SDS011;20784;51.332;12.410;2023-08-24T06:43:14;6.32;;;4.82;;
34541;SDS011;20784;51.332;12.410;2023-08-24T06:45:40;7.82;;;4.05;;
34541;SDS011;20784;51.332;12.410;2023-08-24T06:48:06;8.23;;;4.32;;
34541;SDS011;20784;51.332;12.410;2023-08-24T06:50:32;7.03;;;4.63;;
34541;SDS011;20784;51.332;12.410;2023-08-24T06:52:58;7.20;;;4.47;;
34541;SDS011;20784;51.332;12.410;2023-08-24T06:55:24;4.55;;;3.67;;
34541;SDS011;20784;51.332;12.410;2023-08-24T06:57:51;8.68;;;4.10;;
34541;SDS011;20784;51.332;12.410;2023-08-24T07:00:17;8.38;;;3.78;;
34541;SDS011;20784;51.332;12.410;2023-08-24T07:02:49;8.68;;;3.60;;
34541;SDS011;20784;51.332;12.410;2023-08-24T07:05:16;6.57;;;4.03;;
34541;SDS011;20784;51.332;12.410;2023-08-24T07:07:47;7.15;;;4.13;;
34541;SDS011;20784;51.332;12.410;2023-08-24T07:10:15;4.85;;;3.10;;
34541;SDS011;20784;51.332;12.410;2023-08-24T07:12:40;9.07;;;3.47;;
34541;SDS011;20784;51.332;12.410;2023-08-24T07:15:07;7.28;;;3.63;;
34541;SDS011;20784;51.332;12.410;2023-08-24T07:17:33;7.05;;;3.40;;
34541;SDS011;20784;51.332;12.410;2023-08-24T07:19:59;5.28;;;3.70;;
34541;SDS011;20784;51.332;12.410;2023-08-24T07:22:25;5.15;;;3.15;;
34541;SDS011;20784;51.332;12.410;2023-08-24T07:24:53;5.05;;;3.42;;
34541;SDS011;20784;51.332;12.410;2023-08-24T07:27:19;6.70;;;3.40;;
34541;SDS011;20784;51.332;12.410;2023-08-24T07:29:45;3.50;;;2.80;;
34541;SDS011;20784;51.332;12.410;2023-08-24T07:32:13;7.20;;;3.08;;
34541;SDS011;20784;51.332;12.410;2023-08-24T07:34:39;6.32;;;3.00;;
34541;SDS011;20784;51.332;12.410;2023-08-24T07:37:05;4.20;;;2.85;;
34541;SDS011;20784;51.332;12.410;2023-08-24T07:39:32;4.28;;;3.22;;
34541;SDS011;20784;51.332;12.410;2023-08-24T07:42:03;4.65;;;3.15;;
34541;SDS011;20784;51.332;12.410;2023-08-24T07:44:28;4.72;;;3.05;;
34541;SDS011;20784;51.332;12.410;2023-08-24T07:46:54;5.60;;;3.15;;
34541;SDS011;20784;51.332;12.410;2023-08-24T07:49:20;8.48;;;3.08;;
34541;SDS011;20784;51.332;12.410;2023-08-24T07:51:46;9.48;;;3.15;;
34541;SDS011;20784;51.332;12.410;2023-08-24T07:54:12;3.67;;;2.58;;
34541;SDS011;20784;51.332;12.410;2023-08-24T07:56:38;5.85;;;2.78;;
34541;SDS011;20784;51.332;12.410;2023-08-24T07:59:03;5.57;;;2.67;;
34541;SDS011;20784;51.332;12.410;2023-08-24T08:01:35;5.80;;;2.72;;
34541;SDS011;20784;51.332;12.410;2023-08-24T08:04:03;5.47;;;3.05;;
34541;SDS011;20784;51.332;12.410;2023-08-24T08:06:29;7.65;;;2.75;;
34541;SDS011;20784;51.332;12.410;2023-08-24T08:08:55;4.30;;;2.58;;
34541;SDS011;20784;51.332;12.410;2023-08-24T08:11:21;8.60;;;2.72;;
34541;SDS011;20784;51.332;12.410;2023-08-24T08:13:47;3.83;;;2.50;;
34541;SDS011;20784;51.332;12.410;2023-08-24T08:16:13;4.28;;;2.72;;
34541;SDS011;20784;51.332;12.410;2023-08-24T08:18:38;6.43;;;2.60;;
34541;SDS011;20784;51.332;12.410;2023-08-24T08:21:15;5.18;;;2.50;;
34541;SDS011;20784;51.332;12.410;2023-08-24T08:23:43;5.57;;;2.22;;
34541;SDS011;20784;51.332;12.410;2023-08-24T08:26:10;9.20;;;2.20;;
34541;SDS011;20784;51.332;12.410;2023-08-24T08:28:36;3.22;;;2.28;;
34541;SDS011;20784;51.332;12.410;2023-08-24T08:31:02;6.60;;;2.13;;
34541;SDS011;20784;51.332;12.410;2023-08-24T08:33:28;7.28;;;2.65;;
34541;SDS011;20784;51.332;12.410;2023-08-24T08:35:54;9.35;;;2.30;;
34541;SDS011;20784;51.332;12.410;2023-08-24T08:38:20;3.47;;;1.92;;
34541;SDS011;20784;51.332;12.410;2023-08-24T08:40:51;3.55;;;2.17;;
34541;SDS011;20784;51.332;12.410;2023-08-24T08:43:27;5.35;;;2.42;;
34541;SDS011;20784;51.332;12.410;2023-08-24T08:45:53;4.28;;;2.00;;
34541;SDS011;20784;51.332;12.410;2023-08-24T08:48:20;6.32;;;1.95;;
34541;SDS011;20784;51.332;12.410;2023-08-24T08:50:48;3.22;;;2.00;;
34541;SDS011;20784;51.332;12.410;2023-08-24T08:53:14;3.45;;;1.85;;
34541;SDS011;20784;51.332;12.410;2023-08-24T08:55:41;3.63;;;1.88;;
34541;SDS011;20784;51.332;12.410;2023-08-24T08:58:06;3.13;;;2.15;;
34541;SDS011;20784;51.332;12.410;2023-08-24T09:00:33;2.75;;;2.00;;
34541;SDS011;20784;51.332;12.410;2023-08-24T09:03:00;12.60;;;1.90;;
34541;SDS011;20784;51.332;12.410;2023-08-24T09:05:26;5.05;;;2.05;;
34541;SDS011;20784;51.332;12.410;2023-08-24T09:07:53;9.35;;;1.98;;
34541;SDS011;20784;51.332;12.410;2023-08-24T09:10:20;7.88;;;2.33;;
34541;SDS011;20784;51.332;12.410;2023-08-24T09:12:45;6.10;;;2.47;;
34541;SDS011;20784;51.332;12.410;2023-08-24T09:15:14;9.55;;;2.30;;
34541;SDS011;20784;51.332;12.410;2023-08-24T09:17:48;7.10;;;2.40;;
34541;SDS011;20784;51.332;12.410;2023-08-24T09:20:14;6.18;;;2.20;;
34541;SDS011;20784;51.332;12.410;2023-08-24T09:22:40;6.93;;;2.45;;
34541;SDS011;20784;51.332;12.410;2023-08-24T09:25:09;2.58;;;2.25;;
34541;SDS011;20784;51.332;12.410;2023-08-24T09:27:35;4.97;;;1.95;;
34541;SDS011;20784;51.332;12.410;2023-08-24T09:30:00;5.78;;;2.10;;
34541;SDS011;20784;51.332;12.410;2023-08-24T09:32:30;10.73;;;2.60;;
34541;SDS011;20784;51.332;12.410;2023-08-24T09:35:08;2.50;;;2.30;;
34541;SDS011;20784;51.332;12.410;2023-08-24T09:37:34;7.25;;;2.60;;
34541;SDS011;20784;51.332;12.410;2023-08-24T09:40:02;3.63;;;2.17;;
34541;SDS011;20784;51.332;12.410;2023-08-24T09:42:37;4.85;;;2.20;;
34541;SDS011;20784;51.332;12.410;2023-08-24T09:45:03;2.67;;;2.05;;
34541;SDS011;20784;51.332;12.410;2023-08-24T09:47:29;3.63;;;2.45;;
34541;SDS011;20784;51.332;12.410;2023-08-24T09:49:58;3.28;;;1.92;;
34541;SDS011;20784;51.332;12.410;2023-08-24T09:52:24;9.90;;;2.53;;
34541;SDS011;20784;51.332;12.410;2023-08-24T09:54:56;3.38;;;2.05;;
34541;SDS011;20784;51.332;12.410;2023-08-24T09:57:39;6.85;;;2.47;;
34541;SDS011;20784;51.332;12.410;2023-08-24T10:00:11;5.70;;;2.20;;
34541;SDS011;20784;51.332;12.410;2023-08-24T10:02:51;6.85;;;2.13;;
34541;SDS011;20784;51.332;12.410;2023-08-24T10:05:22;4.32;;;2.40;;
34541;SDS011;20784;51.332;12.410;2023-08-24T10:07:53;5.43;;;2.28;;
34541;SDS011;20784;51.332;12.410;2023-08-24T10:10:21;8.85;;;2.35;;
34541;SDS011;20784;51.332;12.410;2023-08-24T10:12:53;3.22;;;2.13;;
34541;SDS011;20784;51.332;12.410;2023-08-24T10:15:33;9.70;;;2.28;;
34541;SDS011;20784;51.332;12.410;2023-08-24T10:18:01;4.88;;;2.30;;
34541;SDS011;20784;51.332;12.410;2023-08-24T10:20:27;3.85;;;2.28;;
34541;SDS011;20784;51.332;12.410;2023-08-24T10:22:56;6.65;;;2.58;;
34541;SDS011;20784;51.332;12.410;2023-08-24T10:25:26;6.55;;;2.42;;
34541;SDS011;20784;51.332;12.410;2023-08-24T10:27:53;3.38;;;2.05;;
34541;SDS011;20784;51.332;12.410;2023-08-24T10:30:19;6.28;;;2.47;;
34541;SDS011;20784;51.332;12.410;2023-08-24T10:32:52;11.75;;;2.22;;
34541;SDS011;20784;51.332;12.410;2023-08-24T10:35:19;5.25;;;2.50;;
34541;SDS011;20784;51.332;12.410;2023-08-24T10:37:45;4.85;;;2.20;;
34541;SDS011;20784;51.332;12.410;2023-08-24T10:40:11;3.53;;;2.45;;
34541;SDS011;20784;51.332;12.410;2023-08-24T10:42:44;6.88;;;2.25;;
34541;SDS011;20784;51.332;12.410;2023-08-24T10:45:12;4.10;;;2.20;;
34541;SDS011;20784;51.332;12.410;2023-08-24T10:47:45;3.53;;;2.00;;
34541;SDS011;20784;51.332;12.410;2023-08-24T10:50:11;5.38;;;2.45;;
34541;SDS011;20784;51.332;12.410;2023-08-24T10:52:37;3.58;;;2.25;;
34541;SDS011;20784;51.332;12.410;2023-08-24T10:55:04;5.40;;;2.58;;
34541;SDS011;20784;51.332;12.410;2023-08-24T10:57:58;5.68;;;2.60;;
34541;SDS011;20784;51.332;12.410;2023-08-24T11:00:25;3.83;;;2.20;;
34541;SDS011;20784;51.332;12.410;2023-08-24T11:02:52;3.42;;;2.13;;
34541;SDS011;20784;51.332;12.410;2023-08-24T11:05:22;3.90;;;2.20;;
34541;SDS011;20784;51.332;12.410;2023-08-24T11:07:53;7.57;;;2.95;;
34541;SDS011;20784;51.332;12.410;2023-08-24T11:10:21;4.35;;;2.45;;
34541;SDS011;20784;51.332;12.410;2023-08-24T11:13:05;4.15;;;2.35;;
34541;SDS011;20784;51.332;12.410;2023-08-24T11:15:40;5.50;;;2.28;;
34541;SDS011;20784;51.332;12.410;2023-08-24T11:18:26;8.80;;;2.30;;
34541;SDS011;20784;51.332;12.410;2023-08-24T11:20:54;4.57;;;2.17;;
34541;SDS011;20784;51.332;12.410;2023-08-24T11:23:27;2.70;;;2.17;;
34541;SDS011;20784;51.332;12.410;2023-08-24T11:25:54;6.93;;;2.45;;
34541;SDS011;20784;51.332;12.410;2023-08-24T11:28:24;3.75;;;2.40;;
34541;SDS011;20784;51.332;12.410;2023-08-24T11:30:55;3.75;;;2.40;;
34541;SDS011;20784;51.332;12.410;2023-08-24T11:33:31;3.50;;;2.65;;
34541;SDS011;20784;51.332;12.410;2023-08-24T11:36:00;2.47;;;2.22;;
34541;SDS011;20784;51.332;12.410;2023-08-24T11:38:38;5.93;;;2.47;;
34541;SDS011;20784;51.332;12.410;2023-08-24T11:41:17;3.50;;;2.33;;
34541;SDS011;20784;51.332;12.410;2023-08-24T11:43:43;4.32;;;2.42;;
34541;SDS011;20784;51.332;12.410;2023-08-24T11:46:10;3.20;;;2.05;;
34541;SDS011;20784;51.332;12.410;2023-08-24T11:48:37;4.15;;;2.80;;
34541;SDS011;20784;51.332;12.410;2023-08-24T11:51:07;4.03;;;2.30;;
34541;SDS011;20784;51.332;12.410;2023-08-24T11:53:36;4.13;;;2.50;;
34541;SDS011;20784;51.332;12.410;2023-08-24T11:56:02;3.72;;;2.47;;
34541;SDS011;20784;51.332;12.410;2023-08-24T11:58:30;4.07;;;2.42;;
34541;SDS011;20784;51.332;12.410;2023-08-24T12:00:55;5.00;;;2.60;;
34541;SDS011;20784;51.332;12.410;2023-08-24T12:03:21;5.57;;;2.40;;
34541;SDS011;20784;51.332;12.410;2023-08-24T12:05:47;4.85;;;2.40;;
34541;SDS011;20784;51.332;12.410;2023-08-24T12:08:13;3.40;;;2.42;;
34541;SDS011;20784;51.332;12.410;2023-08-24T12:10:42;3.92;;;2.22;;
34541;SDS011;20784;51.332;12.410;2023-08-24T12:13:09;8.57;;;2.23;;
34541;SDS011;20784;51.332;12.410;2023-08-24T12:15:35;3.95;;;2.30;;
34541;SDS011;20784;51.332;12.410;2023-08-24T12:18:08;4.20;;;2.75;;
34541;SDS011;20784;51.332;12.410;2023-08-24T12:20:35;4.30;;;2.58;;
34541;SDS011;20784;51.332;12.410;2023-08-24T12:23:01;4.90;;;2.50;;
34541;SDS011;20784;51.332;12.410;2023-08-24T12:25:27;4.47;;;2.58;;
34541;SDS011;20784;51.332;12.410;2023-08-24T12:28:07;3.72;;;2.40;;
34541;SDS011;20784;51.332;12.410;2023-08-24T12:33:32;6.82;;;2.30;;
34541;SDS011;20784;51.332;12.410;2023-08-24T12:35:58;3.72;;;2.70;;
34541;SDS011;20784;51.332;12.410;2023-08-24T12:38:24;4.18;;;2.30;;
34541;SDS011;20784;51.332;12.410;2023-08-24T12:40:51;4.30;;;2.80;;
34541;SDS011;20784;51.332;12.410;2023-08-24T12:43:17;4.55;;;2.60;;
34541;SDS011;20784;51.332;12.410;2023-08-24T12:45:43;5.15;;;2.75;;
34541;SDS011;20784;51.332;12.410;2023-08-24T12:48:09;4.45;;;2.65;;
34541;SDS011;20784;51.332;12.410;2023-08-24T12:50:35;5.25;;;2.45;;
34541;SDS011;20784;51.332;12.410;2023-08-24T12:53:03;6.10;;;2.85;;
34541;SDS011;20784;51.332;12.410;2023-08-24T12:55:31;7.72;;;2.50;;
34541;SDS011;20784;51.332;12.410;2023-08-24T12:57:58;7.32;;;2.65;;
34541;SDS011;20784;51.332;12.410;2023-08-24T13:00:23;2.97;;;2.17;;
34541;SDS011;20784;51.332;12.410;2023-08-24T13:02:49;3.50;;;2.67;;
34541;SDS011;20784;51.332;12.410;2023-08-24T13:05:15;5.43;;;2.70;;
34541;SDS011;20784;51.332;12.410;2023-08-24T13:07:41;3.70;;;2.42;;
34541;SDS011;20784;51.332;12.410;2023-08-24T13:10:15;6.32;;;2.83;;
34541;SDS011;20784;51.332;12.410;2023-08-24T13:12:41;5.32;;;2.97;;
34541;SDS011;20784;51.332;12.410;2023-08-24T13:15:07;3.53;;;2.60;;
34541;SDS011;20784;51.332;12.410;2023-08-24T13:17:33;4.03;;;2.50;;
34541;SDS011;20784;51.332;12.410;2023-08-24T13:19:58;6.40;;;2.75;;
34541;SDS011;20784;51.332;12.410;2023-08-24T13:22:27;8.48;;;2.45;;
34541;SDS011;20784;51.332;12.410;2023-08-24T13:24:52;8.00;;;2.72;;
34541;SDS011;20784;51.332;12.410;2023-08-24T13:27:18;5.25;;;2.92;;
34541;SDS011;20784;51.332;12.410;2023-08-24T13:29:44;5.80;;;2.95;;
34541;SDS011;20784;51.332;12.410;2023-08-24T13:32:09;3.92;;;2.72;;
34541;SDS011;20784;51.332;12.410;2023-08-24T13:34:35;9.80;;;3.00;;
34541;SDS011;20784;51.332;12.410;2023-08-24T13:37:02;4.38;;;2.70;;
34541;SDS011;20784;51.332;12.410;2023-08-24T13:39:27;3.05;;;2.60;;
34541;SDS011;20784;51.332;12.410;2023-08-24T13:41:54;8.68;;;2.85;;
34541;SDS011;20784;51.332;12.410;2023-08-24T13:44:22;4.68;;;2.63;;
34541;SDS011;20784;51.332;12.410;2023-08-24T13:46:48;4.80;;;2.50;;
34541;SDS011;20784;51.332;12.410;2023-08-24T13:49:13;7.57;;;2.92;;
34541;SDS011;20784;51.332;12.410;2023-08-24T13:51:39;4.20;;;2.47;;
34541;SDS011;20784;51.332;12.410;2023-08-24T13:54:15;4.95;;;3.33;;
34541;SDS011;20784;51.332;12.410;2023-08-24T13:56:42;4.00;;;2.38;;
34541;SDS011;20784;51.332;12.410;2023-08-24T13:59:12;3.70;;;2.08;;
34541;SDS011;20784;51.332;12.410;2023-08-24T14:01:39;3.63;;;2.47;;
34541;SDS011;20784;51.332;12.410;2023-08-24T14:04:05;3.83;;;2.47;;
34541;SDS011;20784;51.332;12.410;2023-08-24T14:06:31;5.18;;;2.20;;
34541;SDS011;20784;51.332;12.410;2023-08-24T14:08:59;5.90;;;2.33;;
34541;SDS011;20784;51.332;12.410;2023-08-24T14:11:28;7.03;;;2.85;;
34541;SDS011;20784;51.332;12.410;2023-08-24T14:13:54;4.00;;;2.30;;
34541;SDS011;20784;51.332;12.410;2023-08-24T14:16:20;3.90;;;2.42;;
34541;SDS011;20784;51.332;12.410;2023-08-24T14:18:46;3.78;;;2.47;;
34541;SDS011;20784;51.332;12.410;2023-08-24T14:21:12;5.13;;;2.30;;
34541;SDS011;20784;51.332;12.410;2023-08-24T14:23:38;7.80;;;2.90;;
34541;SDS011;20784;51.332;12.410;2023-08-24T14:26:04;13.80;;;2.50;;
34541;SDS011;20784;51.332;12.410;2023-08-24T14:31:22;6.03;;;2.35;;
34541;SDS011;20784;51.332;12.410;2023-08-24T14:33:55;4.78;;;2.42;;
34541;SDS011;20784;51.332;12.410;2023-08-24T14:36:21;2.70;;;2.40;;
34541;SDS011;20784;51.332;12.410;2023-08-24T14:38:47;3.70;;;2.50;;
34541;SDS011;20784;51.332;12.410;2023-08-24T14:41:14;4.10;;;2.53;;
34541;SDS011;20784;51.332;12.410;2023-08-24T14:43:40;7.93;;;2.63;;
34541;SDS011;20784;51.332;12.410;2023-08-24T14:46:07;4.63;;;2.45;;
34541;SDS011;20784;51.332;12.410;2023-08-24T14:48:33;3.10;;;2.20;;
34541;SDS011;20784;51.332;12.410;2023-08-24T14:50:59;4.65;;;2.50;;
34541;SDS011;20784;51.332;12.410;2023-08-24T14:53:26;2.65;;;2.10;;